sensor_id;sensor_type;location;lat;lon;timestamp;P1;durP1;ratioP1;P2;durP2;ratioP2
43994;SDS011;51687;52.160;5.298;2023-05-10T06:17:52;34.03;;;24.17;;
43994;SDS011;51687;52.160;5.298;2023-05-10T06:20:19;33.58;;;25.65;;
43994;SDS011;51687;52.160;5.298;2023-05-10T06:22:46;31.63;;;24.60;;
43994;SDS011;51687;52.160;5.298;2023-05-10T06:25:13;25.15;;;22.48;;
43994;SDS011;51687;52.160;5.298;2023-05-10T06:27:41;26.92;;;22.90;;
43994;SDS011;51687;52.160;5.298;2023-05-10T06:30:08;28.60;;;23.17;;
43994;SDS011;51687;52.160;5.298;2023-05-10T06:32:38;25.33;;;22.15;;
43994;SDS011;51687;52.160;5.298;2023-05-10T06:35:06;24.13;;;20.48;;
43994;SDS011;51687;52.160;5.298;2023-05-10T06:37:33;22.60;;;19.60;;
43994;SDS011;51687;52.160;5.298;2023-05-10T06:40:00;21.55;;;18.80;;
43994;SDS011;51687;52.160;5.298;2023-05-10T06:42:28;21.70;;;19.50;;
43994;SDS011;51687;52.160;5.298;2023-05-10T06:44:55;23.00;;;19.00;;
43994;SDS011;51687;52.160;5.298;2023-05-10T06:47:21;20.25;;;18.15;;
43994;SDS011;51687;52.160;5.298;2023-05-10T06:49:48;20.35;;;18.45;;
43994;SDS011;51687;52.160;5.298;2023-05-10T06:52:15;19.58;;;17.25;;
43994;SDS011;51687;52.160;5.298;2023-05-10T06:54:42;20.17;;;18.10;;
43994;SDS011;51687;52.160;5.298;2023-05-10T06:57:08;19.38;;;17.70;;
43994;SDS011;51687;52.160;5.298;2023-05-10T06:59:55;19.60;;;17.80;;
43994;SDS011;51687;52.160;5.298;2023-05-10T07:02:23;22.60;;;18.23;;
43994;SDS011;51687;52.160;5.298;2023-05-10T07:04:49;18.73;;;16.80;;
43994;SDS011;51687;52.160;5.298;2023-05-10T07:07:18;21.23;;;17.45;;
43994;SDS011;51687;52.160;5.298;2023-05-10T07:09:45;19.52;;;16.52;;
43994;SDS011;51687;52.160;5.298;2023-05-10T07:12:12;17.85;;;16.30;;
43994;SDS011;51687;52.160;5.298;2023-05-10T07:14:40;19.83;;;17.83;;
43994;SDS011;51687;52.160;5.298;2023-05-10T07:17:08;19.38;;;17.52;;
43994;SDS011;51687;52.160;5.298;2023-05-10T07:19:35;19.85;;;18.08;;
43994;SDS011;51687;52.160;5.298;2023-05-10T07:22:02;17.98;;;16.40;;
43994;SDS011;51687;52.160;5.298;2023-05-10T07:24:29;18.83;;;17.00;;
43994;SDS011;51687;52.160;5.298;2023-05-10T07:26:57;17.75;;;16.10;;
43994;SDS011;51687;52.160;5.298;2023-05-10T07:29:24;18.00;;;16.23;;
43994;SDS011;51687;52.160;5.298;2023-05-10T07:31:51;16.83;;;15.20;;
43994;SDS011;51687;52.160;5.298;2023-05-10T07:34:18;16.52;;;14.60;;
43994;SDS011;51687;52.160;5.298;2023-05-10T07:36:44;15.57;;;14.07;;
43994;SDS011;51687;52.160;5.298;2023-05-10T07:39:11;16.67;;;15.18;;
43994;SDS011;51687;52.160;5.298;2023-05-10T07:41:51;16.20;;;14.60;;
43994;SDS011;51687;52.160;5.298;2023-05-10T07:44:18;16.67;;;14.75;;
43994;SDS011;51687;52.160;5.298;2023-05-10T07:46:46;15.93;;;14.52;;
43994;SDS011;51687;52.160;5.298;2023-05-10T07:49:13;17.67;;;15.93;;
43994;SDS011;51687;52.160;5.298;2023-05-10T07:51:40;17.20;;;15.55;;
43994;SDS011;51687;52.160;5.298;2023-05-10T07:54:08;16.27;;;14.77;;
43994;SDS011;51687;52.160;5.298;2023-05-10T07:56:35;18.20;;;16.33;;
43994;SDS011;51687;52.160;5.298;2023-05-10T07:59:03;17.65;;;15.70;;
43994;SDS011;51687;52.160;5.298;2023-05-10T08:01:31;23.15;;;17.13;;
43994;SDS011;51687;52.160;5.298;2023-05-10T08:04:00;20.23;;;18.13;;
43994;SDS011;51687;52.160;5.298;2023-05-10T08:06:28;19.50;;;17.45;;
43994;SDS011;51687;52.160;5.298;2023-05-10T08:08:56;19.20;;;17.20;;
43994;SDS011;51687;52.160;5.298;2023-05-10T08:11:23;19.10;;;17.33;;
43994;SDS011;51687;52.160;5.298;2023-05-10T08:13:50;24.13;;;19.00;;
43994;SDS011;51687;52.160;5.298;2023-05-10T08:16:17;21.60;;;19.50;;
43994;SDS011;51687;52.160;5.298;2023-05-10T08:18:44;20.23;;;18.25;;
43994;SDS011;51687;52.160;5.298;2023-05-10T08:21:13;21.85;;;19.63;;
43994;SDS011;51687;52.160;5.298;2023-05-10T08:23:41;19.15;;;17.30;;
43994;SDS011;51687;52.160;5.298;2023-05-10T08:28:37;18.90;;;17.20;;
43994;SDS011;51687;52.160;5.298;2023-05-10T08:31:04;20.00;;;18.40;;
43994;SDS011;51687;52.160;5.298;2023-05-10T08:33:31;20.63;;;18.67;;
43994;SDS011;51687;52.160;5.298;2023-05-10T08:35:58;21.25;;;19.10;;
43994;SDS011;51687;52.160;5.298;2023-05-10T08:38:25;20.10;;;18.30;;
43994;SDS011;51687;52.160;5.298;2023-05-10T08:40:52;18.52;;;16.67;;
43994;SDS011;51687;52.160;5.298;2023-05-10T08:43:28;19.42;;;17.52;;
43994;SDS011;51687;52.160;5.298;2023-05-10T08:45:56;19.35;;;17.23;;
43994;SDS011;51687;52.160;5.298;2023-05-10T08:48:30;20.25;;;18.10;;
43994;SDS011;51687;52.160;5.298;2023-05-10T08:51:00;19.23;;;17.60;;
43994;SDS011;51687;52.160;5.298;2023-05-10T08:53:30;18.02;;;16.58;;
43994;SDS011;51687;52.160;5.298;2023-05-10T08:56:01;17.38;;;15.98;;
43994;SDS011;51687;52.160;5.298;2023-05-10T08:58:28;16.73;;;15.13;;
43994;SDS011;51687;52.160;5.298;2023-05-10T09:00:56;15.07;;;13.75;;
43994;SDS011;51687;52.160;5.298;2023-05-10T09:03:25;16.25;;;14.63;;
43994;SDS011;51687;52.160;5.298;2023-05-10T09:05:52;16.08;;;14.48;;
43994;SDS011;51687;52.160;5.298;2023-05-10T09:08:22;17.27;;;15.95;;
43994;SDS011;51687;52.160;5.298;2023-05-10T09:10:52;15.50;;;14.13;;
43994;SDS011;51687;52.160;5.298;2023-05-10T09:13:21;16.77;;;15.02;;
43994;SDS011;51687;52.160;5.298;2023-05-10T09:15:49;14.13;;;12.82;;
43994;SDS011;51687;52.160;5.298;2023-05-10T09:18:16;14.93;;;13.43;;
43994;SDS011;51687;52.160;5.298;2023-05-10T09:20:43;15.55;;;14.32;;
43994;SDS011;51687;52.160;5.298;2023-05-10T09:23:12;13.00;;;11.80;;
43994;SDS011;51687;52.160;5.298;2023-05-10T09:25:41;12.80;;;11.57;;
43994;SDS011;51687;52.160;5.298;2023-05-10T09:28:08;9.65;;;8.88;;
43994;SDS011;51687;52.160;5.298;2023-05-10T09:30:35;10.93;;;9.82;;
43994;SDS011;51687;52.160;5.298;2023-05-10T09:33:02;10.70;;;9.70;;
43994;SDS011;51687;52.160;5.298;2023-05-10T09:35:31;11.25;;;10.35;;
43994;SDS011;51687;52.160;5.298;2023-05-10T09:38:02;11.10;;;9.68;;
43994;SDS011;51687;52.160;5.298;2023-05-10T09:40:30;9.73;;;8.93;;
43994;SDS011;51687;52.160;5.298;2023-05-10T09:45:29;10.63;;;9.63;;
43994;SDS011;51687;52.160;5.298;2023-05-10T09:47:57;10.82;;;9.82;;
43994;SDS011;51687;52.160;5.298;2023-05-10T09:50:25;11.63;;;10.60;;
43994;SDS011;51687;52.160;5.298;2023-05-10T09:52:54;13.00;;;11.52;;
43994;SDS011;51687;52.160;5.298;2023-05-10T09:55:39;11.35;;;10.13;;
43994;SDS011;51687;52.160;5.298;2023-05-10T09:58:15;10.43;;;9.50;;
43994;SDS011;51687;52.160;5.298;2023-05-10T10:00:43;12.80;;;9.82;;
43994;SDS011;51687;52.160;5.298;2023-05-10T10:05:42;11.57;;;10.68;;
43994;SDS011;51687;52.160;5.298;2023-05-10T10:08:10;11.80;;;10.73;;
43994;SDS011;51687;52.160;5.298;2023-05-10T10:10:39;10.90;;;10.00;;
43994;SDS011;51687;52.160;5.298;2023-05-10T10:13:07;10.05;;;9.23;;
43994;SDS011;51687;52.160;5.298;2023-05-10T10:15:34;12.05;;;10.73;;
43994;SDS011;51687;52.160;5.298;2023-05-10T10:18:01;12.43;;;11.20;;
43994;SDS011;51687;52.160;5.298;2023-05-10T10:20:30;11.43;;;10.32;;
43994;SDS011;51687;52.160;5.298;2023-05-10T10:22:57;12.43;;;11.35;;
43994;SDS011;51687;52.160;5.298;2023-05-10T10:25:24;11.23;;;10.23;;
43994;SDS011;51687;52.160;5.298;2023-05-10T10:30:25;10.00;;;9.20;;
43994;SDS011;51687;52.160;5.298;2023-05-10T10:36:00;10.38;;;9.27;;
43994;SDS011;51687;52.160;5.298;2023-05-10T10:41:30;9.88;;;8.68;;
43994;SDS011;51687;52.160;5.298;2023-05-10T10:44:35;10.23;;;9.32;;
43994;SDS011;51687;52.160;5.298;2023-05-10T10:49:38;9.27;;;8.50;;
43994;SDS011;51687;52.160;5.298;2023-05-10T10:52:20;9.75;;;8.85;;
43994;SDS011;51687;52.160;5.298;2023-05-10T10:57:35;9.20;;;8.40;;
43994;SDS011;51687;52.160;5.298;2023-05-10T11:00:25;9.43;;;8.45;;
43994;SDS011;51687;52.160;5.298;2023-05-10T11:05:41;9.88;;;8.88;;
43994;SDS011;51687;52.160;5.298;2023-05-10T11:08:10;10.95;;;9.75;;
43994;SDS011;51687;52.160;5.298;2023-05-10T11:10:39;8.40;;;7.70;;
43994;SDS011;51687;52.160;5.298;2023-05-10T11:13:14;8.23;;;7.43;;
43994;SDS011;51687;52.160;5.298;2023-05-10T11:15:47;6.97;;;6.28;;
43994;SDS011;51687;52.160;5.298;2023-05-10T11:18:20;8.18;;;6.40;;
43994;SDS011;51687;52.160;5.298;2023-05-10T11:20:50;7.28;;;6.55;;
43994;SDS011;51687;52.160;5.298;2023-05-10T11:23:20;8.57;;;6.03;;
43994;SDS011;51687;52.160;5.298;2023-05-10T11:25:48;6.93;;;6.22;;
43994;SDS011;51687;52.160;5.298;2023-05-10T11:28:18;8.32;;;5.82;;
43994;SDS011;51687;52.160;5.298;2023-05-10T11:30:46;6.93;;;6.22;;
43994;SDS011;51687;52.160;5.298;2023-05-10T11:33:16;7.25;;;6.32;;
43994;SDS011;51687;52.160;5.298;2023-05-10T11:35:44;6.90;;;5.47;;
43994;SDS011;51687;52.160;5.298;2023-05-10T11:38:11;5.63;;;5.00;;
43994;SDS011;51687;52.160;5.298;2023-05-10T11:40:39;6.50;;;5.72;;
43994;SDS011;51687;52.160;5.298;2023-05-10T11:43:08;6.30;;;5.47;;
43994;SDS011;51687;52.160;5.298;2023-05-10T11:45:37;7.53;;;5.65;;
43994;SDS011;51687;52.160;5.298;2023-05-10T11:48:06;7.85;;;6.93;;
43994;SDS011;51687;52.160;5.298;2023-05-10T11:50:33;7.15;;;6.55;;
43994;SDS011;51687;52.160;5.298;2023-05-10T11:53:00;7.47;;;6.68;;
43994;SDS011;51687;52.160;5.298;2023-05-10T11:55:27;7.55;;;6.93;;
43994;SDS011;51687;52.160;5.298;2023-05-10T11:57:59;7.95;;;7.25;;
43994;SDS011;51687;52.160;5.298;2023-05-10T12:00:27;8.35;;;7.38;;
43994;SDS011;51687;52.160;5.298;2023-05-10T12:02:54;7.78;;;6.22;;
43994;SDS011;51687;52.160;5.298;2023-05-10T12:05:21;8.00;;;7.40;;
43994;SDS011;51687;52.160;5.298;2023-05-10T12:07:48;6.82;;;6.22;;
43994;SDS011;51687;52.160;5.298;2023-05-10T12:10:15;6.45;;;5.95;;
43994;SDS011;51687;52.160;5.298;2023-05-10T12:12:45;7.47;;;6.68;;
43994;SDS011;51687;52.160;5.298;2023-05-10T12:15:18;6.53;;;5.82;;
43994;SDS011;51687;52.160;5.298;2023-05-10T12:17:46;6.07;;;5.53;;
43994;SDS011;51687;52.160;5.298;2023-05-10T12:22:45;5.53;;;5.07;;
43994;SDS011;51687;52.160;5.298;2023-05-10T12:25:12;5.78;;;5.28;;
43994;SDS011;51687;52.160;5.298;2023-05-10T12:27:40;4.60;;;4.20;;
43994;SDS011;51687;52.160;5.298;2023-05-10T12:30:07;4.70;;;3.60;;
43994;SDS011;51687;52.160;5.298;2023-05-10T12:32:37;4.72;;;3.53;;
43994;SDS011;51687;52.160;5.298;2023-05-10T12:35:05;6.72;;;3.50;;
43994;SDS011;51687;52.160;5.298;2023-05-10T12:37:33;3.63;;;2.88;;
43994;SDS011;51687;52.160;5.298;2023-05-10T12:40:02;2.70;;;2.50;;
43994;SDS011;51687;52.160;5.298;2023-05-10T12:42:31;2.67;;;2.47;;
43994;SDS011;51687;52.160;5.298;2023-05-10T12:44:58;5.57;;;2.78;;
43994;SDS011;51687;52.160;5.298;2023-05-10T12:47:24;3.30;;;2.63;;
43994;SDS011;51687;52.160;5.298;2023-05-10T12:49:51;3.45;;;2.58;;
43994;SDS011;51687;52.160;5.298;2023-05-10T12:52:18;4.47;;;2.75;;
43994;SDS011;51687;52.160;5.298;2023-05-10T12:54:47;3.00;;;2.75;;
43994;SDS011;51687;52.160;5.298;2023-05-10T12:57:14;3.58;;;2.80;;
43994;SDS011;51687;52.160;5.298;2023-05-10T12:59:41;3.78;;;3.30;;
43994;SDS011;51687;52.160;5.298;2023-05-10T13:02:08;4.07;;;3.60;;
43994;SDS011;51687;52.160;5.298;2023-05-10T13:04:35;4.63;;;3.80;;
43994;SDS011;51687;52.160;5.298;2023-05-10T13:07:06;5.57;;;5.07;;
43994;SDS011;51687;52.160;5.298;2023-05-10T13:09:33;8.10;;;7.30;;
43994;SDS011;51687;52.160;5.298;2023-05-10T13:11:59;10.90;;;8.63;;
43994;SDS011;51687;52.160;5.298;2023-05-10T13:14:26;11.10;;;9.80;;
43994;SDS011;51687;52.160;5.298;2023-05-10T13:16:54;11.95;;;10.40;;
43994;SDS011;51687;52.160;5.298;2023-05-10T13:19:21;11.07;;;9.98;;
43994;SDS011;51687;52.160;5.298;2023-05-10T13:21:48;11.20;;;10.10;;
43994;SDS011;51687;52.160;5.298;2023-05-10T13:24:15;11.27;;;10.13;;
43994;SDS011;51687;52.160;5.298;2023-05-10T13:26:43;14.35;;;10.20;;
43994;SDS011;51687;52.160;5.298;2023-05-10T13:29:09;17.02;;;11.15;;
43994;SDS011;51687;52.160;5.298;2023-05-10T13:31:36;11.40;;;10.30;;
43994;SDS011;51687;52.160;5.298;2023-05-10T13:34:03;13.98;;;12.68;;
43994;SDS011;51687;52.160;5.298;2023-05-10T13:36:31;13.20;;;12.00;;
43994;SDS011;51687;52.160;5.298;2023-05-10T13:38:57;15.88;;;11.98;;
43994;SDS011;51687;52.160;5.298;2023-05-10T13:41:24;13.75;;;12.35;;
43994;SDS011;51687;52.160;5.298;2023-05-10T13:43:51;14.52;;;13.13;;
43994;SDS011;51687;52.160;5.298;2023-05-10T13:46:20;15.52;;;13.50;;
43994;SDS011;51687;52.160;5.298;2023-05-10T13:48:46;15.32;;;12.60;;
43994;SDS011;51687;52.160;5.298;2023-05-10T13:51:13;13.77;;;12.38;;
43994;SDS011;51687;52.160;5.298;2023-05-10T13:53:40;13.55;;;12.15;;
43994;SDS011;51687;52.160;5.298;2023-05-10T13:56:07;14.73;;;12.23;;
43994;SDS011;51687;52.160;5.298;2023-05-10T13:58:34;12.52;;;11.27;;
43994;SDS011;51687;52.160;5.298;2023-05-10T14:01:02;13.13;;;11.52;;
43994;SDS011;51687;52.160;5.298;2023-05-10T14:03:30;12.27;;;11.07;;
43994;SDS011;51687;52.160;5.298;2023-05-10T14:05:57;11.88;;;10.60;;
43994;SDS011;51687;52.160;5.298;2023-05-10T14:08:24;11.85;;;10.65;;
43994;SDS011;51687;52.160;5.298;2023-05-10T14:10:53;12.63;;;10.15;;
43994;SDS011;51687;52.160;5.298;2023-05-10T14:13:19;11.23;;;10.13;;
43994;SDS011;51687;52.160;5.298;2023-05-10T14:15:46;11.98;;;10.77;;
43994;SDS011;51687;52.160;5.298;2023-05-10T14:18:13;12.00;;;10.73;;
43994;SDS011;51687;52.160;5.298;2023-05-10T14:20:40;11.80;;;10.60;;
43994;SDS011;51687;52.160;5.298;2023-05-10T14:23:07;12.38;;;9.35;;
43994;SDS011;51687;52.160;5.298;2023-05-10T14:25:37;10.15;;;9.20;;
43994;SDS011;51687;52.160;5.298;2023-05-10T14:28:04;10.52;;;9.63;;
43994;SDS011;51687;52.160;5.298;2023-05-10T14:30:31;11.82;;;10.60;;
43994;SDS011;51687;52.160;5.298;2023-05-10T14:33:01;11.32;;;10.25;;
43994;SDS011;51687;52.160;5.298;2023-05-10T14:37:57;12.73;;;9.25;;
43994;SDS011;51687;52.160;5.298;2023-05-10T14:40:24;11.18;;;10.07;;
43994;SDS011;51687;52.160;5.298;2023-05-10T14:42:52;11.35;;;10.18;;
43994;SDS011;51687;52.160;5.298;2023-05-10T14:45:19;12.60;;;10.48;;
43994;SDS011;51687;52.160;5.298;2023-05-10T14:47:46;11.77;;;10.57;;
43994;SDS011;51687;52.160;5.298;2023-05-10T14:50:13;11.63;;;10.38;;
43994;SDS011;51687;52.160;5.298;2023-05-10T14:53:00;10.60;;;9.68;;
43994;SDS011;51687;52.160;5.298;2023-05-10T14:55:26;11.68;;;10.27;;
43994;SDS011;51687;52.160;5.298;2023-05-10T14:57:53;10.77;;;9.88;;
43994;SDS011;51687;52.160;5.298;2023-05-10T15:00:20;11.32;;;10.15;;
43994;SDS011;51687;52.160;5.298;2023-05-10T15:02:48;10.65;;;9.65;;
43994;SDS011;51687;52.160;5.298;2023-05-10T15:05:15;11.60;;;10.43;;
43994;SDS011;51687;52.160;5.298;2023-05-10T15:07:43;10.82;;;9.93;;
43994;SDS011;51687;52.160;5.298;2023-05-10T15:10:10;10.88;;;9.85;;
43994;SDS011;51687;52.160;5.298;2023-05-10T15:12:37;10.70;;;9.25;;
43994;SDS011;51687;52.160;5.298;2023-05-10T15:15:04;12.52;;;10.40;;
43994;SDS011;51687;52.160;5.298;2023-05-10T15:17:32;11.20;;;10.30;;
43994;SDS011;51687;52.160;5.298;2023-05-10T15:20:01;9.65;;;7.93;;
43994;SDS011;51687;52.160;5.298;2023-05-10T15:22:31;11.45;;;8.95;;
43994;SDS011;51687;52.160;5.298;2023-05-10T15:24:59;8.40;;;7.43;;
43994;SDS011;51687;52.160;5.298;2023-05-10T15:27:26;9.98;;;8.18;;
43994;SDS011;51687;52.160;5.298;2023-05-10T15:29:53;8.38;;;7.57;;
43994;SDS011;51687;52.160;5.298;2023-05-10T15:32:20;8.80;;;7.88;;
43994;SDS011;51687;52.160;5.298;2023-05-10T15:34:47;8.48;;;7.68;;
43994;SDS011;51687;52.160;5.298;2023-05-10T15:37:14;8.50;;;7.68;;
43994;SDS011;51687;52.160;5.298;2023-05-10T15:39:41;8.73;;;7.30;;
43994;SDS011;51687;52.160;5.298;2023-05-10T15:42:07;8.93;;;7.88;;
43994;SDS011;51687;52.160;5.298;2023-05-10T15:44:34;11.68;;;8.30;;
43994;SDS011;51687;52.160;5.298;2023-05-10T15:47:01;8.52;;;7.72;;
43994;SDS011;51687;52.160;5.298;2023-05-10T15:49:28;8.70;;;7.80;;
43994;SDS011;51687;52.160;5.298;2023-05-10T15:51:55;8.93;;;7.75;;
43994;SDS011;51687;52.160;5.298;2023-05-10T15:54:22;9.32;;;8.55;;
43994;SDS011;51687;52.160;5.298;2023-05-10T15:56:49;8.60;;;7.82;;
43994;SDS011;51687;52.160;5.298;2023-05-10T15:59:15;9.55;;;8.02;;
43994;SDS011;51687;52.160;5.298;2023-05-10T16:01:42;9.18;;;8.23;;
43994;SDS011;51687;52.160;5.298;2023-05-10T16:04:09;8.82;;;8.02;;
43994;SDS011;51687;52.160;5.298;2023-05-10T16:06:36;8.30;;;7.53;;
43994;SDS011;51687;52.160;5.298;2023-05-10T16:09:03;8.05;;;6.97;;
43994;SDS011;51687;52.160;5.298;2023-05-10T16:11:30;8.20;;;7.40;;
43994;SDS011;51687;52.160;5.298;2023-05-10T16:13:56;7.32;;;6.63;;
43994;SDS011;51687;52.160;5.298;2023-05-10T16:16:23;6.53;;;5.93;;
43994;SDS011;51687;52.160;5.298;2023-05-10T16:18:50;6.07;;;5.43;;
43994;SDS011;51687;52.160;5.298;2023-05-10T16:21:17;6.55;;;5.95;;
43994;SDS011;51687;52.160;5.298;2023-05-10T16:23:44;7.45;;;5.60;;
43994;SDS011;51687;52.160;5.298;2023-05-10T16:26:11;5.95;;;5.45;;
43994;SDS011;51687;52.160;5.298;2023-05-10T16:28:39;5.97;;;5.40;;
43994;SDS011;51687;52.160;5.298;2023-05-10T16:31:08;7.07;;;4.80;;
43994;SDS011;51687;52.160;5.298;2023-05-10T16:33:35;5.80;;;4.25;;
43994;SDS011;51687;52.160;5.298;2023-05-10T16:36:02;9.20;;;4.75;;
43994;SDS011;51687;52.160;5.298;2023-05-10T16:38:31;5.18;;;4.65;;
43994;SDS011;51687;52.160;5.298;2023-05-10T16:41:00;5.05;;;4.65;;
43994;SDS011;51687;52.160;5.298;2023-05-10T16:43:27;5.25;;;4.75;;
43994;SDS011;51687;52.160;5.298;2023-05-10T16:45:55;4.78;;;4.38;;
43994;SDS011;51687;52.160;5.298;2023-05-10T16:48:22;4.80;;;4.40;;
43994;SDS011;51687;52.160;5.298;2023-05-10T16:50:51;5.83;;;5.33;;
43994;SDS011;51687;52.160;5.298;2023-05-10T16:53:18;5.68;;;5.18;;
43994;SDS011;51687;52.160;5.298;2023-05-10T16:55:45;6.53;;;5.82;;
43994;SDS011;51687;52.160;5.298;2023-05-10T16:58:12;6.85;;;6.15;;
43994;SDS011;51687;52.160;5.298;2023-05-10T17:00:39;6.43;;;5.82;;
43994;SDS011;51687;52.160;5.298;2023-05-10T17:03:07;6.82;;;6.22;;
43994;SDS011;51687;52.160;5.298;2023-05-10T17:05:34;7.05;;;6.35;;
43994;SDS011;51687;52.160;5.298;2023-05-10T17:08:01;7.72;;;6.97;;
43994;SDS011;51687;52.160;5.298;2023-05-10T17:10:28;7.15;;;6.55;;
43994;SDS011;51687;52.160;5.298;2023-05-10T17:12:55;9.20;;;8.30;;
43994;SDS011;51687;52.160;5.298;2023-05-10T17:15:22;8.80;;;8.10;;
43994;SDS011;51687;52.160;5.298;2023-05-10T17:17:50;7.70;;;7.10;;
43994;SDS011;51687;52.160;5.298;2023-05-10T17:20:17;9.23;;;8.40;;
43994;SDS011;51687;52.160;5.298;2023-05-10T17:22:44;9.13;;;8.43;;
43994;SDS011;51687;52.160;5.298;2023-05-10T17:25:11;10.45;;;9.57;;
43994;SDS011;51687;52.160;5.298;2023-05-10T17:27:39;9.30;;;8.60;;
43994;SDS011;51687;52.160;5.298;2023-05-10T17:30:08;10.18;;;9.27;;
43994;SDS011;51687;52.160;5.298;2023-05-10T17:32:35;9.30;;;8.50;;
43994;SDS011;51687;52.160;5.298;2023-05-10T17:35:02;9.43;;;8.63;;
43994;SDS011;51687;52.160;5.298;2023-05-10T17:37:30;10.18;;;8.70;;
43994;SDS011;51687;52.160;5.298;2023-05-10T17:40:00;9.90;;;8.90;;
43994;SDS011;51687;52.160;5.298;2023-05-10T17:42:30;9.27;;;8.45;;
43994;SDS011;51687;52.160;5.298;2023-05-10T17:44:58;9.30;;;8.50;;
43994;SDS011;51687;52.160;5.298;2023-05-10T17:47:25;9.98;;;8.98;;
43994;SDS011;51687;52.160;5.298;2023-05-10T17:49:54;9.57;;;8.43;;
43994;SDS011;51687;52.160;5.298;2023-05-10T17:52:21;10.23;;;8.43;;
43994;SDS011;51687;52.160;5.298;2023-05-10T17:54:48;9.43;;;8.60;;
43994;SDS011;51687;52.160;5.298;2023-05-10T17:57:15;9.48;;;8.70;;
43994;SDS011;51687;52.160;5.298;2023-05-10T17:59:42;9.52;;;8.73;;
43994;SDS011;51687;52.160;5.298;2023-05-10T18:02:11;10.10;;;9.20;;
43994;SDS011;51687;52.160;5.298;2023-05-10T18:04:39;9.48;;;8.48;;
43994;SDS011;51687;52.160;5.298;2023-05-10T18:07:07;10.10;;;9.20;;
43994;SDS011;51687;52.160;5.298;2023-05-10T18:09:35;9.60;;;8.68;;
43994;SDS011;51687;52.160;5.298;2023-05-10T18:12:02;10.70;;;9.80;;
43994;SDS011;51687;52.160;5.298;2023-05-10T18:14:30;9.68;;;8.77;;
43994;SDS011;51687;52.160;5.298;2023-05-10T18:17:06;10.55;;;9.63;;
43994;SDS011;51687;52.160;5.298;2023-05-10T18:19:34;13.40;;;9.87;;
43994;SDS011;51687;52.160;5.298;2023-05-10T18:22:01;12.05;;;10.90;;
43994;SDS011;51687;52.160;5.298;2023-05-10T18:24:28;11.30;;;10.30;;
43994;SDS011;51687;52.160;5.298;2023-05-10T18:27:06;10.77;;;9.85;;
43994;SDS011;51687;52.160;5.298;2023-05-10T18:29:34;12.50;;;10.68;;
43994;SDS011;51687;52.160;5.298;2023-05-10T18:32:02;11.95;;;10.95;;
43994;SDS011;51687;52.160;5.298;2023-05-10T18:34:29;11.52;;;10.48;;
43994;SDS011;51687;52.160;5.298;2023-05-10T18:36:56;10.75;;;9.75;;
43994;SDS011;51687;52.160;5.298;2023-05-10T18:39:23;12.13;;;10.93;;
43994;SDS011;51687;52.160;5.298;2023-05-10T18:41:50;12.35;;;11.05;;
43994;SDS011;51687;52.160;5.298;2023-05-10T18:44:18;12.10;;;10.75;;
43994;SDS011;51687;52.160;5.298;2023-05-10T18:46:47;12.57;;;11.23;;
43994;SDS011;51687;52.160;5.298;2023-05-10T18:49:14;11.90;;;10.70;;
43994;SDS011;51687;52.160;5.298;2023-05-10T18:51:41;11.90;;;10.70;;
43994;SDS011;51687;52.160;5.298;2023-05-10T18:54:08;16.58;;;10.48;;
43994;SDS011;51687;52.160;5.298;2023-05-10T18:56:35;12.50;;;11.35;;
43994;SDS011;51687;52.160;5.298;2023-05-10T18:59:05;12.52;;;11.23;;
43994;SDS011;51687;52.160;5.298;2023-05-10T19:01:32;12.90;;;10.00;;
43994;SDS011;51687;52.160;5.298;2023-05-10T19:03:59;11.10;;;10.10;;
43994;SDS011;51687;52.160;5.298;2023-05-10T19:06:27;12.20;;;10.75;;
43994;SDS011;51687;52.160;5.298;2023-05-10T19:08:54;12.40;;;11.30;;
43994;SDS011;51687;52.160;5.298;2023-05-10T19:11:21;12.13;;;10.93;;
43994;SDS011;51687;52.160;5.298;2023-05-10T19:13:48;14.07;;;12.70;;
43994;SDS011;51687;52.160;5.298;2023-05-10T19:16:17;15.23;;;12.32;;
43994;SDS011;51687;52.160;5.298;2023-05-10T19:18:48;13.98;;;12.57;;
43994;SDS011;51687;52.160;5.298;2023-05-10T19:21:16;13.27;;;11.90;;
43994;SDS011;51687;52.160;5.298;2023-05-10T19:23:44;13.80;;;12.25;;
43994;SDS011;51687;52.160;5.298;2023-05-10T19:26:13;12.77;;;11.57;;
43994;SDS011;51687;52.160;5.298;2023-05-10T19:28:41;14.10;;;11.80;;
43994;SDS011;51687;52.160;5.298;2023-05-10T19:31:08;12.27;;;10.98;;
43994;SDS011;51687;52.160;5.298;2023-05-10T19:33:36;13.57;;;12.30;;
43994;SDS011;51687;52.160;5.298;2023-05-10T19:36:04;13.10;;;11.90;;
43994;SDS011;51687;52.160;5.298;2023-05-10T19:38:32;14.90;;;11.50;;
43994;SDS011;51687;52.160;5.298;2023-05-10T19:40:59;14.07;;;11.40;;
43994;SDS011;51687;52.160;5.298;2023-05-10T19:43:27;14.30;;;12.73;;
43994;SDS011;51687;52.160;5.298;2023-05-10T19:46:00;12.55;;;11.25;;
43994;SDS011;51687;52.160;5.298;2023-05-10T19:48:27;13.77;;;12.32;;
43994;SDS011;51687;52.160;5.298;2023-05-10T19:50:58;13.07;;;11.68;;
43994;SDS011;51687;52.160;5.298;2023-05-10T19:53:26;13.27;;;12.18;;
43994;SDS011;51687;52.160;5.298;2023-05-10T19:55:53;12.85;;;11.57;;
43994;SDS011;51687;52.160;5.298;2023-05-10T19:58:21;12.93;;;11.63;;
43994;SDS011;51687;52.160;5.298;2023-05-10T20:00:50;18.48;;;12.07;;
43994;SDS011;51687;52.160;5.298;2023-05-10T20:03:17;13.10;;;11.80;;
43994;SDS011;51687;52.160;5.298;2023-05-10T20:05:44;12.93;;;11.73;;
43994;SDS011;51687;52.160;5.298;2023-05-10T20:08:11;14.00;;;12.70;;
43994;SDS011;51687;52.160;5.298;2023-05-10T20:10:38;13.90;;;12.68;;
43994;SDS011;51687;52.160;5.298;2023-05-10T20:13:06;15.15;;;11.98;;
43994;SDS011;51687;52.160;5.298;2023-05-10T20:15:33;12.70;;;11.60;;
43994;SDS011;51687;52.160;5.298;2023-05-10T20:18:00;14.10;;;11.93;;
43994;SDS011;51687;52.160;5.298;2023-05-10T20:20:28;13.20;;;11.85;;
43994;SDS011;51687;52.160;5.298;2023-05-10T20:22:56;12.85;;;11.63;;
43994;SDS011;51687;52.160;5.298;2023-05-10T20:25:23;17.30;;;12.57;;
43994;SDS011;51687;52.160;5.298;2023-05-10T20:27:50;13.93;;;12.63;;
43994;SDS011;51687;52.160;5.298;2023-05-10T20:30:18;12.63;;;11.63;;
43994;SDS011;51687;52.160;5.298;2023-05-10T20:32:45;11.97;;;10.77;;
43994;SDS011;51687;52.160;5.298;2023-05-10T20:35:13;12.02;;;10.85;;
43994;SDS011;51687;52.160;5.298;2023-05-10T20:37:40;12.07;;;10.98;;
43994;SDS011;51687;52.160;5.298;2023-05-10T20:40:08;12.35;;;11.10;;
43994;SDS011;51687;52.160;5.298;2023-05-10T20:42:35;12.35;;;11.13;;
43994;SDS011;51687;52.160;5.298;2023-05-10T20:45:02;11.77;;;10.77;;
43994;SDS011;51687;52.160;5.298;2023-05-10T20:47:29;13.02;;;11.73;;
43994;SDS011;51687;52.160;5.298;2023-05-10T20:49:57;13.10;;;11.25;;
43994;SDS011;51687;52.160;5.298;2023-05-10T20:52:25;11.27;;;10.18;;
43994;SDS011;51687;52.160;5.298;2023-05-10T20:54:53;12.02;;;10.82;;
43994;SDS011;51687;52.160;5.298;2023-05-10T20:57:20;11.70;;;10.68;;
43994;SDS011;51687;52.160;5.298;2023-05-10T20:59:48;12.35;;;10.80;;
43994;SDS011;51687;52.160;5.298;2023-05-10T21:02:16;11.25;;;10.35;;
43994;SDS011;51687;52.160;5.298;2023-05-10T21:04:43;11.43;;;10.30;;
43994;SDS011;51687;52.160;5.298;2023-05-10T21:07:11;10.82;;;9.82;;
43994;SDS011;51687;52.160;5.298;2023-05-10T21:09:38;11.93;;;10.82;;
43994;SDS011;51687;52.160;5.298;2023-05-10T21:12:07;12.60;;;11.27;;
43994;SDS011;51687;52.160;5.298;2023-05-10T21:14:34;11.43;;;10.32;;
43994;SDS011;51687;52.160;5.298;2023-05-10T21:17:01;12.23;;;11.02;;
43994;SDS011;51687;52.160;5.298;2023-05-10T21:19:28;11.98;;;10.43;;
43994;SDS011;51687;52.160;5.298;2023-05-10T21:21:55;14.15;;;10.73;;